Impacts METAR Board INFO
IDs:

KMOB - Mobile Rgnl, AL, US

Updated at: 2202 UTC 19 Feb 2018
Potential Impact None Slight Moderate High
Time19/10Z 19/11Z 19/12Z 19/13Z 19/14Z 19/15Z 19/16Z 19/17Z 19/18Z 19/19Z 19/20Z 19/21Z 19/22Z
VIS10 9 6 4 4 7 9 9 9 9 9 9 9
CIG-- 5 4 4 30 50 47 24 23 30 29 -- --
CoverCLROVCOVCOVCOVCBKNBKNOVCOVCBKNBKNSCTSCT
FltCatVFRIFRLIFRLIFRMVFRVFRVFRMVFRMVFRMVFRMVFRVFRVFR
WX----BRBRBR-DZ--------------
WDir120110130130130130140140150130140150150
WSpd4 3 6 9 9 10 12 16 13 14 16 18 13
WGst-- -- -- -- -- -- -- 24 20 20 -- -- 23
Raw hourly METARs
KMOB 190956Z AUTO 12004KT 10SM CLR 18/18 A3017 RMK AO2 SLP212 T01830178
KMOB 191056Z AUTO 11003KT 9SM OVC005 19/18 A3018 RMK AO2 SLP216 T01890178
KMOB 191156Z 13006KT 6SM BR OVC004 19/19 A3019 RMK AO2 SLP221 T01940189 10200 20178 53008
KMOB 191256Z 13009KT 4SM BR BKN004 OVC065 20/19 A3020 RMK AO2 SLP225 T02000194
KMOB 191356Z 13009KT 4SM BR SCT006 BKN030 OVC070 21/19 A3022 RMK AO2 SLP231 T02060194
KMOB 191456Z 13010KT 7SM -DZ FEW006 BKN050 BKN070 21/19 A3024 RMK AO2 DZB51 SLP236 P0000 60000 T02110189 53016 $
KMOB 191556Z 14012KT 9SM BKN047 BKN070 22/18 A3026 RMK AO2 DZE04RAB04E10 SLP243 P0000 T02170183
KMOB 191656Z 14016G24KT 9SM BKN024 BKN029 OVC055 25/18 A3025 RMK AO2 SLP239 T02500178
KMOB 191756Z 15013G20KT 9SM BKN023 BKN031 OVC070 25/18 A3023 RMK AO2 SLP234 60000 T02500183 10250 20194 58002
KMOB 191856Z 13014G20KT 9SM BKN030 BKN055 BKN075 26/18 A3020 RMK AO2 SLP224 T02560183
KMOB 191956Z 14016KT 9SM BKN029 26/18 A3018 RMK AO2 SLP218 T02610178 $
KMOB 192056Z 15018KT 9SM SCT029 SCT070 25/17 A3018 RMK AO2 PK WND 14026/2014 SLP217 T02500172 56017 $
KMOB 192156Z 15013G23KT 9SM SCT029 SCT070 24/17 A3017 RMK AO2 SLP215 T02440172 $